createdAt,value
2019-03-21T00:02:31.860Z,16.77
2019-03-21T00:05:05.515Z,15.95
2019-03-21T00:07:38.976Z,17.05
2019-03-21T00:11:08.548Z,15.55
2019-03-21T00:11:23.543Z,12.27
2019-03-21T00:13:41.396Z,18.37
2019-03-21T00:16:14.740Z,18.45
2019-03-21T00:18:48.128Z,25.05
2019-03-21T00:21:21.050Z,19.23
2019-03-21T00:23:54.605Z,22.52
2019-03-21T00:26:27.675Z,21.50
2019-03-21T00:29:00.563Z,19.10
2019-03-21T00:31:33.295Z,16.40
2019-03-21T00:34:06.173Z,17.42
2019-03-21T00:36:40.257Z,21.97
2019-03-21T00:39:13.464Z,18.57
2019-03-21T00:41:46.952Z,18.57
2019-03-21T00:44:20.016Z,19.30
2019-03-21T00:46:53.180Z,19.57
2019-03-21T00:49:26.503Z,17.77
2019-03-21T00:51:59.283Z,18.60
2019-03-21T00:54:32.231Z,15.50
2019-03-21T00:57:05.134Z,13.78
2019-03-21T00:59:37.859Z,15.83
2019-03-21T01:02:10.511Z,17.12
2019-03-21T01:04:43.441Z,15.93
2019-03-21T01:07:16.381Z,15.28
2019-03-21T01:09:49.313Z,13.68
2019-03-21T01:12:22.272Z,13.05
2019-03-21T01:14:55.557Z,20.60
2019-03-21T01:17:28.625Z,14.43
2019-03-21T01:20:01.559Z,15.60
2019-03-21T01:22:34.562Z,14.78
2019-03-21T01:25:11.630Z,16.17
2019-03-21T01:27:44.597Z,16.30
2019-03-21T01:30:17.721Z,16.85
2019-03-21T01:32:50.343Z,14.00
2019-03-21T01:35:23.571Z,16.23
2019-03-21T01:37:56.486Z,18.07
2019-03-21T01:40:30.533Z,17.17
2019-03-21T01:43:03.141Z,13.88
2019-03-21T01:45:36.139Z,13.83
2019-03-21T01:48:08.812Z,20.65
2019-03-21T01:50:41.491Z,14.73
2019-03-21T01:53:14.263Z,12.98
2019-03-21T01:55:46.912Z,17.25
2019-03-21T01:58:20.216Z,14.03
2019-03-21T02:00:52.994Z,16.90
2019-03-21T02:03:25.691Z,14.60
2019-03-21T02:05:58.833Z,13.70
2019-03-21T02:08:31.564Z,14.35
2019-03-21T02:11:04.220Z,13.68
2019-03-21T02:13:36.901Z,14.47
2019-03-21T02:16:10.522Z,18.85
2019-03-21T02:18:43.486Z,14.50
2019-03-21T02:21:16.226Z,15.58
2019-03-21T02:23:49.250Z,17.40
2019-03-21T02:26:21.932Z,17.00
2019-03-21T02:28:54.838Z,18.75
2019-03-21T02:31:27.465Z,15.28
2019-03-21T02:34:00.141Z,17.48
2019-03-21T02:36:33.178Z,17.20
2019-03-21T02:39:07.147Z,17.90
2019-03-21T02:41:39.772Z,18.05
2019-03-21T02:44:12.478Z,19.10
2019-03-21T02:46:45.120Z,14.15
2019-03-21T02:49:17.807Z,18.20
2019-03-21T02:51:50.420Z,16.40
2019-03-21T02:54:23.095Z,15.50
2019-03-21T02:56:55.784Z,19.25
2019-03-21T02:59:28.617Z,18.12
2019-03-21T03:02:01.235Z,17.73
2019-03-21T03:04:34.019Z,20.55
2019-03-21T03:07:06.647Z,20.17
2019-03-21T03:09:40.184Z,21.20
2019-03-21T03:12:12.888Z,16.40
2019-03-21T03:14:45.938Z,16.70
2019-03-21T03:17:18.878Z,13.98
2019-03-21T03:19:51.944Z,20.10
2019-03-21T03:22:24.714Z,17.07
2019-03-21T03:24:57.643Z,19.45
2019-03-21T03:27:30.306Z,21.52
2019-03-21T03:30:02.979Z,21.23
2019-03-21T03:32:35.939Z,20.30
2019-03-21T03:35:11.414Z,16.95
2019-03-21T03:37:44.344Z,24.02
2019-03-21T03:40:21.913Z,17.25
2019-03-21T03:42:54.631Z,19.17
2019-03-21T03:45:37.580Z,16.87
2019-03-21T03:48:06.281Z,17.52
2019-03-21T03:50:38.900Z,16.15
2019-03-21T03:53:11.607Z,16.57
2019-03-21T03:55:44.223Z,15.93
2019-03-21T03:58:18.652Z,20.20
2019-03-21T04:00:51.267Z,16.02
2019-03-21T04:03:24.003Z,17.73
2019-03-21T04:05:56.665Z,19.42
2019-03-21T04:08:29.370Z,19.75
2019-03-21T04:11:02.008Z,18.23
2019-03-21T04:13:34.688Z,17.57
2019-03-21T04:16:07.611Z,16.65
2019-03-21T04:18:40.727Z,18.65
2019-03-21T04:21:13.417Z,18.35
2019-03-21T04:23:46.487Z,19.00
2019-03-21T04:26:26.635Z,15.35
2019-03-21T04:28:59.293Z,21.57
2019-03-21T04:31:31.900Z,21.82
2019-03-21T04:34:06.748Z,17.65
2019-03-21T04:36:39.355Z,16.75
2019-03-21T04:39:12.874Z,17.85
2019-03-21T04:41:45.994Z,13.48
2019-03-21T04:44:18.744Z,15.78
2019-03-21T04:46:51.755Z,15.72
2019-03-21T04:49:25.142Z,23.50
2019-03-21T04:51:58.030Z,18.30
2019-03-21T04:54:30.930Z,21.30
2019-03-21T04:57:03.947Z,20.97
2019-03-21T04:59:36.701Z,17.52
2019-03-21T05:02:09.584Z,19.90
2019-03-21T05:04:42.624Z,23.98
2019-03-21T05:07:14.703Z,16.95
2019-03-21T05:09:47.359Z,17.70
2019-03-21T05:12:20.000Z,19.23
2019-03-21T05:14:52.682Z,19.75
2019-03-21T05:17:25.316Z,23.67
2019-03-21T05:19:58.963Z,19.80
2019-03-21T05:22:35.210Z,19.57
2019-03-21T05:25:09.983Z,21.65
2019-03-21T05:27:43.628Z,21.05
2019-03-21T05:30:21.581Z,24.63
2019-03-21T05:32:54.202Z,18.20
2019-03-21T05:35:26.922Z,18.62
2019-03-21T05:37:59.553Z,24.77
2019-03-21T05:40:32.669Z,24.18
2019-03-21T05:43:13.344Z,27.35
2019-03-21T05:45:46.304Z,28.65
2019-03-21T05:48:19.272Z,21.87
2019-03-21T05:50:53.373Z,25.15
2019-03-21T05:53:26.294Z,23.05
2019-03-21T05:55:59.260Z,20.30
2019-03-21T05:58:32.142Z,22.42
2019-03-21T06:01:05.313Z,18.35
2019-03-21T06:03:47.482Z,16.15
2019-03-21T06:06:27.214Z,16.93
2019-03-21T06:08:59.900Z,15.43
2019-03-21T06:11:32.571Z,16.12
2019-03-21T06:14:05.189Z,18.55
2019-03-21T06:16:38.027Z,19.92
2019-03-21T06:19:29.326Z,22.15
2019-03-21T06:22:29.519Z,18.17
2019-03-21T06:25:32.819Z,21.00
2019-03-21T06:28:05.482Z,19.80
2019-03-21T06:30:38.112Z,23.35
2019-03-21T06:33:11.173Z,22.17
2019-03-21T06:35:43.912Z,28.87
2019-03-21T06:38:16.901Z,30.20
2019-03-21T06:40:49.563Z,22.60
2019-03-21T06:43:22.424Z,26.05
2019-03-21T06:45:55.101Z,23.32
2019-03-21T06:48:28.042Z,19.00
2019-03-21T06:51:00.753Z,24.92
2019-03-21T06:53:34.443Z,24.82
2019-03-21T06:56:07.173Z,23.47
2019-03-21T06:58:39.945Z,30.82
2019-03-21T07:01:12.732Z,22.77
2019-03-21T07:03:45.485Z,23.35
2019-03-21T07:06:18.566Z,26.87
2019-03-21T07:08:52.148Z,23.98
2019-03-21T07:11:25.217Z,20.23
2019-03-21T07:13:58.264Z,22.42
2019-03-21T07:16:30.976Z,26.82
2019-03-21T07:19:03.723Z,24.90
2019-03-21T07:21:36.403Z,35.68
2019-03-21T07:24:09.472Z,36.58
2019-03-21T07:26:42.173Z,52.43
2019-03-21T07:29:14.918Z,44.65
2019-03-21T07:31:48.243Z,40.92
2019-03-21T07:34:20.999Z,38.80
2019-03-21T07:36:53.718Z,42.58
2019-03-21T07:39:28.653Z,41.20
2019-03-21T07:42:01.555Z,31.05
2019-03-21T07:44:34.252Z,37.98
2019-03-21T07:47:12.734Z,34.40
2019-03-21T07:49:41.389Z,31.53
2019-03-21T07:52:14.380Z,38.60
2019-03-21T07:54:46.959Z,31.60
2019-03-21T07:57:20.021Z,28.93
2019-03-21T07:59:53.687Z,24.87
2019-03-21T08:02:26.331Z,29.27
2019-03-21T08:04:59.057Z,29.73
2019-03-21T08:07:32.612Z,32.33
2019-03-21T08:10:06.298Z,21.07
2019-03-21T08:12:39.277Z,23.07
2019-03-21T08:15:12.367Z,25.80
2019-03-21T08:17:45.452Z,25.33
2019-03-21T08:20:18.322Z,25.73
2019-03-21T08:22:51.024Z,22.00
2019-03-21T08:25:23.779Z,19.93
2019-03-21T08:27:56.970Z,21.97
2019-03-21T08:31:06.541Z,27.23
2019-03-21T08:33:39.191Z,26.90
2019-03-21T08:36:12.543Z,20.83
2019-03-21T08:38:45.941Z,21.30
2019-03-21T08:41:18.776Z,27.90
2019-03-21T08:43:51.413Z,18.77
2019-03-21T08:46:24.501Z,19.23
2019-03-21T08:48:57.193Z,22.10
2019-03-21T08:51:30.017Z,21.00
2019-03-21T08:54:02.671Z,20.57
2019-03-21T08:56:35.703Z,17.83
2019-03-21T08:59:08.427Z,20.77
2019-03-21T09:01:41.075Z,18.93
2019-03-21T09:04:14.588Z,19.17
2019-03-21T09:06:47.331Z,19.87
2019-03-21T09:09:20.075Z,15.87
2019-03-21T09:11:53.050Z,26.43
2019-03-21T09:14:26.731Z,19.07
2019-03-21T09:16:59.447Z,19.30
2019-03-21T09:19:32.469Z,26.87
2019-03-21T09:22:05.170Z,21.80
2019-03-21T09:24:39.010Z,17.70
2019-03-21T09:27:13.004Z,17.80
2019-03-21T09:29:53.401Z,19.40
2019-03-21T09:32:21.245Z,16.83
2019-03-21T09:34:54.270Z,15.70
2019-03-21T09:37:45.983Z,19.00
2019-03-21T09:40:18.675Z,20.10
2019-03-21T09:42:51.318Z,18.40
2019-03-21T09:45:24.309Z,16.30
2019-03-21T09:47:57.034Z,17.00
2019-03-21T09:50:30.774Z,17.13
2019-03-21T09:53:03.396Z,15.60
2019-03-21T09:55:36.079Z,21.20
2019-03-21T09:58:08.804Z,20.27
2019-03-21T10:00:41.672Z,18.63
2019-03-21T10:03:14.307Z,20.03
2019-03-21T10:05:47.401Z,18.33
2019-03-21T10:08:20.021Z,19.37
2019-03-21T10:10:54.317Z,20.53
2019-03-21T10:13:27.540Z,26.27
2019-03-21T10:16:00.242Z,19.20
2019-03-21T10:18:32.914Z,16.37
2019-03-21T10:21:05.943Z,19.20
2019-03-21T10:23:38.566Z,17.27
2019-03-21T10:26:11.250Z,17.17
2019-03-21T10:28:43.886Z,17.93
2019-03-21T10:31:16.998Z,16.97
2019-03-21T10:33:50.023Z,16.43
2019-03-21T10:36:23.643Z,20.33
2019-03-21T10:38:56.580Z,18.13
2019-03-21T10:41:30.197Z,19.90
2019-03-21T10:44:02.885Z,18.97
2019-03-21T10:46:35.728Z,36.33
2019-03-21T10:49:08.512Z,20.83
2019-03-21T10:51:41.239Z,17.27
2019-03-21T10:54:13.936Z,22.60
2019-03-21T10:56:46.863Z,21.10
2019-03-21T10:59:19.528Z,22.40
2019-03-21T11:01:52.241Z,24.23
2019-03-21T11:04:25.155Z,23.37
2019-03-21T11:07:03.612Z,23.93
2019-03-21T11:09:36.255Z,26.93
2019-03-21T11:12:09.361Z,19.83
2019-03-21T11:14:42.002Z,21.30
2019-03-21T11:17:14.736Z,20.47
2019-03-21T11:19:48.243Z,23.30
2019-03-21T11:22:20.893Z,15.60
2019-03-21T11:24:53.507Z,20.73
2019-03-21T11:27:26.172Z,17.30
2019-03-21T11:29:59.232Z,20.03
2019-03-21T11:32:32.171Z,19.60
2019-03-21T11:35:05.210Z,20.50
2019-03-21T11:37:37.967Z,19.53
2019-03-21T11:40:10.725Z,18.83
2019-03-21T11:42:43.410Z,19.20
2019-03-21T11:45:16.066Z,19.23
2019-03-21T11:47:49.110Z,18.60
2019-03-21T11:50:21.781Z,20.17
2019-03-21T11:52:54.463Z,19.07
2019-03-21T11:55:27.171Z,18.10
2019-03-21T11:57:59.842Z,18.77
2019-03-21T12:00:43.129Z,21.90
2019-03-21T12:03:08.781Z,25.73
2019-03-21T12:05:41.552Z,19.30
2019-03-21T12:08:14.770Z,20.53
2019-03-21T12:10:47.651Z,27.67
2019-03-21T12:13:20.345Z,25.30
2019-03-21T12:15:53.281Z,19.87
2019-03-21T12:18:25.950Z,18.23
2019-03-21T12:20:58.561Z,17.70
2019-03-21T12:23:31.228Z,18.40
2019-03-21T12:26:03.846Z,20.63
2019-03-21T12:28:36.579Z,17.87
2019-03-21T12:31:09.195Z,17.47
2019-03-21T12:33:42.987Z,15.03
2019-03-21T12:36:16.435Z,19.23
2019-03-21T12:38:49.085Z,17.53
2019-03-21T12:41:21.709Z,24.73
2019-03-21T12:43:54.382Z,16.60
2019-03-21T12:46:27.009Z,19.10
2019-03-21T12:48:59.673Z,18.07
2019-03-21T12:51:32.558Z,19.60
2019-03-21T12:54:05.229Z,21.33
2019-03-21T12:56:38.298Z,35.00
2019-03-21T12:59:12.684Z,16.77
2019-03-21T13:01:45.612Z,18.90
2019-03-21T13:04:18.265Z,16.80
2019-03-21T13:06:50.875Z,17.67
2019-03-21T13:09:23.541Z,22.10
2019-03-21T13:11:56.159Z,17.93
2019-03-21T13:14:28.822Z,18.47
2019-03-21T13:17:01.554Z,19.37
2019-03-21T13:19:34.222Z,16.50
2019-03-21T13:22:07.159Z,17.40
2019-03-21T13:24:40.365Z,18.00
2019-03-21T13:27:12.972Z,17.73
2019-03-21T13:29:45.634Z,17.23
2019-03-21T13:32:18.232Z,17.40
2019-03-21T13:34:50.900Z,16.83
2019-03-21T13:37:23.504Z,16.43
2019-03-21T13:39:56.171Z,16.57
2019-03-21T13:42:29.097Z,17.00
2019-03-21T13:45:02.063Z,15.20
2019-03-21T13:47:34.942Z,16.13
2019-03-21T13:50:07.966Z,19.00
2019-03-21T13:52:40.667Z,17.30
2019-03-21T13:55:13.397Z,16.30
2019-03-21T13:57:46.007Z,14.90
2019-03-21T14:00:21.441Z,17.50
2019-03-21T14:02:54.061Z,16.90
2019-03-21T14:05:26.739Z,19.03
2019-03-21T14:07:59.358Z,19.00
2019-03-21T14:10:32.367Z,14.67
2019-03-21T14:13:05.432Z,15.13
2019-03-21T14:15:38.403Z,16.67
2019-03-21T14:18:11.379Z,19.17
2019-03-21T14:20:44.128Z,21.40
2019-03-21T14:23:17.603Z,16.70
2019-03-21T14:25:50.372Z,18.53
2019-03-21T14:28:23.823Z,18.23
2019-03-21T14:30:56.475Z,17.10
2019-03-21T14:33:29.246Z,18.10
2019-03-21T14:36:02.214Z,15.47
2019-03-21T14:38:35.166Z,16.70
2019-03-21T14:41:08.344Z,17.00
2019-03-21T14:43:41.003Z,16.77
2019-03-21T14:46:13.609Z,18.30
2019-03-21T14:48:46.273Z,18.20
2019-03-21T14:51:18.932Z,16.07
2019-03-21T14:53:51.928Z,18.33
2019-03-21T14:56:24.556Z,19.40
2019-03-21T14:58:57.220Z,19.77
2019-03-21T15:01:30.227Z,16.53
2019-03-21T15:04:03.042Z,18.80
2019-03-21T15:06:35.650Z,18.73
2019-03-21T15:09:09.158Z,18.23
2019-03-21T15:11:41.839Z,17.87
2019-03-21T15:14:15.827Z,19.03
2019-03-21T15:16:48.719Z,18.07
2019-03-21T15:19:21.387Z,18.53
2019-03-21T15:21:54.304Z,18.27
2019-03-21T15:24:27.040Z,17.57
2019-03-21T15:26:59.692Z,16.80
2019-03-21T15:29:32.360Z,20.17
2019-03-21T15:32:04.975Z,16.40
2019-03-21T15:34:37.624Z,18.03
2019-03-21T15:37:10.254Z,16.60
2019-03-21T15:39:43.190Z,16.77
2019-03-21T15:42:16.081Z,16.97
2019-03-21T15:44:51.494Z,17.10
2019-03-21T15:47:23.137Z,19.43
2019-03-21T15:49:55.881Z,20.07
2019-03-21T15:52:28.848Z,18.60
2019-03-21T15:55:01.552Z,16.50
2019-03-21T15:57:34.281Z,18.53
2019-03-21T16:00:09.327Z,17.30
2019-03-21T16:02:41.960Z,17.13
2019-03-21T16:05:14.623Z,16.00
2019-03-21T16:07:47.254Z,17.50
2019-03-21T16:10:19.957Z,17.97
2019-03-21T16:12:52.931Z,16.67
2019-03-21T16:15:25.869Z,20.40
2019-03-21T16:17:58.488Z,19.00
2019-03-21T16:20:31.423Z,18.13
2019-03-21T16:23:04.146Z,16.70
2019-03-21T16:25:37.064Z,17.90
2019-03-21T16:28:09.709Z,15.03
2019-03-21T16:30:42.425Z,16.10
2019-03-21T16:33:15.081Z,19.07
2019-03-21T16:35:47.823Z,16.73
2019-03-21T16:38:21.083Z,20.17
2019-03-21T16:40:56.335Z,24.70
2019-03-21T16:43:28.271Z,17.47
2019-03-21T16:46:01.024Z,24.00
2019-03-21T16:48:34.309Z,16.87
2019-03-21T16:51:07.079Z,17.13
2019-03-21T16:53:39.984Z,17.87
2019-03-21T16:56:14.196Z,18.67
2019-03-21T16:58:46.821Z,20.63
2019-03-21T17:01:19.837Z,20.53
2019-03-21T17:03:53.366Z,17.53
2019-03-21T17:06:26.423Z,18.00
2019-03-21T17:08:59.521Z,16.77
2019-03-21T17:11:32.278Z,19.60
2019-03-21T17:14:05.397Z,19.03
2019-03-21T17:16:40.417Z,26.80
2019-03-21T17:19:14.479Z,20.60
2019-03-21T17:21:47.551Z,19.70
2019-03-21T17:24:29.158Z,19.60
2019-03-21T17:26:55.172Z,17.20
2019-03-21T17:29:27.828Z,15.10
2019-03-21T17:32:00.780Z,16.87
2019-03-21T17:34:33.461Z,16.47
2019-03-21T17:37:06.341Z,15.33
2019-03-21T17:39:39.471Z,15.33
2019-03-21T17:42:13.111Z,15.53
2019-03-21T17:44:45.765Z,13.77
2019-03-21T17:47:18.750Z,14.03
2019-03-21T17:49:51.766Z,15.67
2019-03-21T17:52:24.747Z,17.67
2019-03-21T17:54:57.675Z,16.20
2019-03-21T17:57:34.650Z,15.40
2019-03-21T18:00:08.104Z,13.67
2019-03-21T18:02:40.784Z,13.70
2019-03-21T18:05:13.832Z,15.50
2019-03-21T18:07:46.532Z,12.77
2019-03-21T18:10:30.878Z,14.07
2019-03-21T18:13:03.854Z,17.83
2019-03-21T18:15:37.344Z,14.70
2019-03-21T18:18:10.028Z,14.43
2019-03-21T18:20:42.869Z,16.93
2019-03-21T18:23:15.486Z,13.33
2019-03-21T18:25:52.366Z,13.60
2019-03-21T18:28:24.982Z,13.63
2019-03-21T18:30:57.973Z,13.00
2019-03-21T18:33:30.607Z,14.87
2019-03-21T18:36:03.297Z,16.30
2019-03-21T18:38:36.239Z,16.33
2019-03-21T18:41:08.882Z,13.53
2019-03-21T18:43:41.508Z,13.30
2019-03-21T18:46:14.449Z,13.40
2019-03-21T18:48:47.209Z,13.57
2019-03-21T18:51:19.950Z,13.57
2019-03-21T18:53:53.191Z,14.30
2019-03-21T18:56:27.348Z,15.40
2019-03-21T18:59:00.414Z,12.80
2019-03-21T19:01:33.183Z,12.37
2019-03-21T19:04:05.887Z,12.10
2019-03-21T19:06:38.867Z,13.47
2019-03-21T19:09:11.550Z,13.87
2019-03-21T19:11:44.583Z,18.00
2019-03-21T19:14:18.106Z,15.33
2019-03-21T19:16:52.073Z,15.68
2019-03-21T19:19:24.760Z,14.38
2019-03-21T19:21:57.403Z,14.53
2019-03-21T19:24:30.368Z,14.40
2019-03-21T19:27:03.065Z,17.57
2019-03-21T19:29:35.746Z,13.60
2019-03-21T19:32:08.721Z,15.08
2019-03-21T19:34:41.563Z,20.35
2019-03-21T19:37:14.870Z,17.57
2019-03-21T19:39:47.584Z,24.12
2019-03-21T19:42:20.252Z,30.30
2019-03-21T19:44:53.605Z,29.70
2019-03-21T19:47:30.309Z,34.70
2019-03-21T19:50:01.098Z,34.27
2019-03-21T19:52:34.034Z,36.85
2019-03-21T19:55:07.480Z,18.73
2019-03-21T19:57:40.619Z,16.60
2019-03-21T20:00:20.612Z,19.80
2019-03-21T20:02:53.346Z,18.17
2019-03-21T20:05:26.023Z,19.57
2019-03-21T20:07:59.122Z,27.22
2019-03-21T20:10:32.083Z,22.02
2019-03-21T20:13:05.097Z,24.30
2019-03-21T20:15:38.130Z,21.23
2019-03-21T20:18:11.320Z,19.00
2019-03-21T20:20:44.911Z,25.37
2019-03-21T20:23:17.874Z,30.95
2019-03-21T20:25:50.692Z,27.37
2019-03-21T20:28:23.354Z,23.85
2019-03-21T20:30:57.530Z,25.15
2019-03-21T20:33:30.450Z,21.90
2019-03-21T20:36:03.614Z,20.82
2019-03-21T20:38:36.796Z,29.35
2019-03-21T20:41:09.762Z,26.93
2019-03-21T20:43:42.970Z,29.77
2019-03-21T20:46:15.670Z,29.05
2019-03-21T20:48:45.263Z,25.40
2019-03-21T20:51:17.986Z,25.90
2019-03-21T20:53:51.133Z,21.30
2019-03-21T20:56:24.700Z,29.12
2019-03-21T20:58:57.369Z,25.32
2019-03-21T21:01:30.109Z,21.57
2019-03-21T21:04:03.010Z,26.00
2019-03-21T21:06:35.964Z,28.65
2019-03-21T21:09:09.913Z,28.00
2019-03-21T21:11:42.862Z,25.62
2019-03-21T21:14:15.523Z,26.07
2019-03-21T21:16:49.890Z,28.20
2019-03-21T21:19:22.538Z,37.17
2019-03-21T21:21:55.217Z,42.45
2019-03-21T21:24:27.900Z,36.50
2019-03-21T21:27:00.584Z,27.75
2019-03-21T21:29:33.479Z,22.15
2019-03-21T21:32:06.288Z,20.85
2019-03-21T21:34:38.908Z,24.92
2019-03-21T21:37:11.991Z,20.25
2019-03-21T21:39:44.898Z,21.90
2019-03-21T21:42:17.875Z,23.18
2019-03-21T21:44:50.761Z,29.20
2019-03-21T21:47:23.455Z,20.85
2019-03-21T21:49:56.733Z,72.82
2019-03-21T21:52:41.334Z,51.20
2019-03-21T21:55:05.372Z,40.08
2019-03-21T21:57:39.183Z,26.42
2019-03-21T22:00:14.988Z,24.57
2019-03-21T22:02:47.677Z,23.70
2019-03-21T22:05:20.875Z,21.65
2019-03-21T22:07:53.870Z,18.07
2019-03-21T22:10:29.328Z,21.50
2019-03-21T22:13:00.858Z,24.95
2019-03-21T22:15:33.827Z,23.45
2019-03-21T22:18:07.056Z,34.78
2019-03-21T22:20:39.768Z,38.67
2019-03-21T22:23:12.747Z,44.50
2019-03-21T22:25:45.528Z,29.90
2019-03-21T22:28:18.288Z,34.05
2019-03-21T22:30:51.510Z,31.12
2019-03-21T22:33:24.503Z,33.55
2019-03-21T22:35:57.558Z,33.75
2019-03-21T22:38:30.273Z,29.52
2019-03-21T22:41:02.948Z,27.05
2019-03-21T22:43:35.899Z,25.45
2019-03-21T22:46:08.590Z,20.65
2019-03-21T22:48:41.235Z,24.70
2019-03-21T22:51:14.183Z,20.35
2019-03-21T22:53:47.133Z,19.05
2019-03-21T22:56:19.801Z,18.67
2019-03-21T22:58:52.722Z,21.05
2019-03-21T23:01:25.438Z,22.35
2019-03-21T23:03:58.343Z,21.82
2019-03-21T23:06:31.144Z,18.48
2019-03-21T23:09:05.172Z,24.60
2019-03-21T23:11:37.887Z,25.15
2019-03-21T23:14:10.512Z,23.98
2019-03-21T23:16:47.120Z,26.52
2019-03-21T23:19:19.779Z,17.70
2019-03-21T23:21:53.027Z,19.23
2019-03-21T23:24:25.653Z,21.80
2019-03-21T23:26:58.670Z,19.90
2019-03-21T23:29:31.291Z,19.25
2019-03-21T23:32:04.114Z,18.45
2019-03-21T23:34:37.047Z,21.33
2019-03-21T23:37:10.046Z,19.00
2019-03-21T23:39:42.677Z,22.22
2019-03-21T23:42:15.732Z,24.25
2019-03-21T23:44:48.790Z,22.62
2019-03-21T23:47:21.497Z,20.30
2019-03-21T23:49:54.477Z,20.45
2019-03-21T23:52:27.140Z,17.65
2019-03-21T23:55:00.559Z,21.97
2019-03-21T23:57:33.299Z,17.87
